sensor_id;sensor_type;location;lat;lon;timestamp;pressure;altitude;pressure_sealevel;temperature
19568;BMP280;9930;49.240;8.548;2023-09-18T00:01:39;99681.47;;;25.87
19568;BMP280;9930;49.240;8.548;2023-09-18T00:04:28;99697.78;;;25.93
19568;BMP280;9930;49.240;8.548;2023-09-18T00:09:49;99692.03;;;25.84
19568;BMP280;9930;49.240;8.548;2023-09-18T00:12:17;99716.75;;;25.98
19568;BMP280;9930;49.240;8.548;2023-09-18T00:14:42;99707.31;;;25.94
19568;BMP280;9930;49.240;8.548;2023-09-18T00:17:08;99709.88;;;25.96
19568;BMP280;9930;49.240;8.548;2023-09-18T00:19:34;99702.16;;;25.93
19568;BMP280;9930;49.240;8.548;2023-09-18T00:22:04;99696.06;;;25.92
19568;BMP280;9930;49.240;8.548;2023-09-18T00:24:33;99693.63;;;25.88
19568;BMP280;9930;49.240;8.548;2023-09-18T00:27:01;99696.06;;;25.92
19568;BMP280;9930;49.240;8.548;2023-09-18T00:29:28;99670.50;;;25.77
19568;BMP280;9930;49.240;8.548;2023-09-18T00:32:01;99694.50;;;25.88
19568;BMP280;9930;49.240;8.548;2023-09-18T00:34:33;99675.78;;;25.75
19568;BMP280;9930;49.240;8.548;2023-09-18T00:37:03;99660.34;;;25.69
19568;BMP280;9930;49.240;8.548;2023-09-18T00:39:31;99669.50;;;25.81
19568;BMP280;9930;49.240;8.548;2023-09-18T00:41:57;99654.16;;;25.72
19568;BMP280;9930;49.240;8.548;2023-09-18T00:44:26;99641.34;;;25.64
19568;BMP280;9930;49.240;8.548;2023-09-18T00:46:53;99649.97;;;25.68
19568;BMP280;9930;49.240;8.548;2023-09-18T00:49:22;99666.19;;;25.76
19568;BMP280;9930;49.240;8.548;2023-09-18T00:51:49;99645.78;;;25.62
19568;BMP280;9930;49.240;8.548;2023-09-18T00:54:19;99660.19;;;25.74
19568;BMP280;9930;49.240;8.548;2023-09-18T00:56:46;99670.50;;;25.77
19568;BMP280;9930;49.240;8.548;2023-09-18T00:59:14;99659.31;;;25.73
19568;BMP280;9930;49.240;8.548;2023-09-18T01:01:42;99643.88;;;25.67
19568;BMP280;9930;49.240;8.548;2023-09-18T01:04:08;99648.16;;;25.70
19568;BMP280;9930;49.240;8.548;2023-09-18T01:06:34;99660.97;;;25.76
19568;BMP280;9930;49.240;8.548;2023-09-18T01:09:02;99646.31;;;25.72
19568;BMP280;9930;49.240;8.548;2023-09-18T01:14:55;99688.13;;;25.95
19568;BMP280;9930;49.240;8.548;2023-09-18T01:17:23;99650.75;;;25.70
19568;BMP280;9930;49.240;8.548;2023-09-18T01:19:51;99667.69;;;25.83
19568;BMP280;9930;49.240;8.548;2023-09-18T01:22:19;99664.09;;;25.86
19568;BMP280;9930;49.240;8.548;2023-09-18T01:24:47;99676.19;;;25.88
19568;BMP280;9930;49.240;8.548;2023-09-18T01:27:18;99681.38;;;25.90
19568;BMP280;9930;49.240;8.548;2023-09-18T01:29:45;99677.13;;;25.87
19568;BMP280;9930;49.240;8.548;2023-09-18T01:32:11;99656.59;;;25.76
19568;BMP280;9930;49.240;8.548;2023-09-18T01:34:42;99683.97;;;25.90
19568;BMP280;9930;49.240;8.548;2023-09-18T01:37:12;99686.75;;;25.85
19568;BMP280;9930;49.240;8.548;2023-09-18T01:39:39;99684.53;;;25.74
19568;BMP280;9930;49.240;8.548;2023-09-18T01:42:17;99725.78;;;25.90
19568;BMP280;9930;49.240;8.548;2023-09-18T01:44:47;99740.34;;;25.97
19568;BMP280;9930;49.240;8.548;2023-09-18T01:47:19;99755.16;;;25.96
19568;BMP280;9930;49.240;8.548;2023-09-18T01:49:49;99718.38;;;25.77
19568;BMP280;9930;49.240;8.548;2023-09-18T01:52:21;99702.56;;;25.82
19568;BMP280;9930;49.240;8.548;2023-09-18T02:03:09;99688.47;;;25.61
19568;BMP280;9930;49.240;8.548;2023-09-18T02:11:10;99734.06;;;25.77
19568;BMP280;9930;49.240;8.548;2023-09-18T02:13:35;99738.44;;;25.77
19568;BMP280;9930;49.240;8.548;2023-09-18T02:16:01;99758.25;;;25.83
19568;BMP280;9930;49.240;8.548;2023-09-18T02:18:31;99773.88;;;25.84
19568;BMP280;9930;49.240;8.548;2023-09-18T02:20:56;99795.63;;;25.85
19568;BMP280;9930;49.240;8.548;2023-09-18T02:23:24;99794.84;;;25.83
19568;BMP280;9930;49.240;8.548;2023-09-18T02:56:54;99695.72;;;25.53
19568;BMP280;9930;49.240;8.548;2023-09-18T02:59:20;99683.63;;;25.50
19568;BMP280;9930;49.240;8.548;2023-09-18T03:01:45;99690.72;;;25.47
19568;BMP280;9930;49.240;8.548;2023-09-18T03:04:11;99701.03;;;25.50
19568;BMP280;9930;49.240;8.548;2023-09-18T03:06:38;99698.22;;;25.56
19568;BMP280;9930;49.240;8.548;2023-09-18T03:09:05;99687.78;;;25.56
19568;BMP280;9930;49.240;8.548;2023-09-18T03:11:33;99706.69;;;25.63
19568;BMP280;9930;49.240;8.548;2023-09-18T03:14:01;99709.47;;;25.58
19568;BMP280;9930;49.240;8.548;2023-09-18T03:16:27;99684.38;;;25.54
19568;BMP280;9930;49.240;8.548;2023-09-18T03:18:54;99682.81;;;25.48
19568;BMP280;9930;49.240;8.548;2023-09-18T03:21:20;99724.97;;;25.63
19568;BMP280;9930;49.240;8.548;2023-09-18T03:23:49;99720.88;;;25.56
19568;BMP280;9930;49.240;8.548;2023-09-18T03:26:15;99741.56;;;25.62
19568;BMP280;9930;49.240;8.548;2023-09-18T03:58:47;99793.69;;;25.38
19568;BMP280;9930;49.240;8.548;2023-09-18T04:01:15;99802.44;;;25.37
19568;BMP280;9930;49.240;8.548;2023-09-18T04:03:41;99785.16;;;25.33
19568;BMP280;9930;49.240;8.548;2023-09-18T04:06:07;99764.59;;;25.24
19568;BMP280;9930;49.240;8.548;2023-09-18T04:08:37;99755.00;;;25.25
19568;BMP280;9930;49.240;8.548;2023-09-18T04:13:35;99750.72;;;25.22
19568;BMP280;9930;49.240;8.548;2023-09-18T04:16:05;99735.22;;;25.17
19568;BMP280;9930;49.240;8.548;2023-09-18T04:18:33;99716.31;;;25.11
19568;BMP280;9930;49.240;8.548;2023-09-18T04:21:02;99697.03;;;25.15
19568;BMP280;9930;49.240;8.548;2023-09-18T04:23:28;99682.44;;;25.09
19568;BMP280;9930;49.240;8.548;2023-09-18T04:25:57;99710.72;;;25.22
19568;BMP280;9930;49.240;8.548;2023-09-18T04:28:25;99690.97;;;25.14
19568;BMP280;9930;49.240;8.548;2023-09-18T04:30:54;99694.41;;;25.15
19568;BMP280;9930;49.240;8.548;2023-09-18T04:33:19;99681.56;;;25.09
19568;BMP280;9930;49.240;8.548;2023-09-18T04:35:50;99649.09;;;24.91
19568;BMP280;9930;49.240;8.548;2023-09-18T04:38:18;99640.63;;;24.84
19568;BMP280;9930;49.240;8.548;2023-09-18T04:40:48;99652.50;;;24.93
19568;BMP280;9930;49.240;8.548;2023-09-18T04:43:14;99651.81;;;24.88
19568;BMP280;9930;49.240;8.548;2023-09-18T04:45:39;99671.66;;;24.92
19568;BMP280;9930;49.240;8.548;2023-09-18T04:48:05;99663.84;;;24.92
19568;BMP280;9930;49.240;8.548;2023-09-18T04:50:32;99640.63;;;24.84
19568;BMP280;9930;49.240;8.548;2023-09-18T04:52:59;99638.00;;;24.84
19568;BMP280;9930;49.240;8.548;2023-09-18T04:55:25;99631.19;;;24.80
19568;BMP280;9930;49.240;8.548;2023-09-18T04:57:53;99642.22;;;24.89
19568;BMP280;9930;49.240;8.548;2023-09-18T05:00:21;99625.13;;;24.80
19568;BMP280;9930;49.240;8.548;2023-09-18T05:02:52;99652.66;;;24.89
19568;BMP280;9930;49.240;8.548;2023-09-18T05:05:22;99634.97;;;24.72
19568;BMP280;9930;49.240;8.548;2023-09-18T05:07:48;99669.22;;;24.88
19568;BMP280;9930;49.240;8.548;2023-09-18T05:10:14;99622.97;;;24.66
19568;BMP280;9930;49.240;8.548;2023-09-18T05:12:50;99631.44;;;24.73
19568;BMP280;9930;49.240;8.548;2023-09-18T05:15:26;99624.56;;;24.70
19568;BMP280;9930;49.240;8.548;2023-09-18T05:17:52;99590.13;;;24.61
19568;BMP280;9930;49.240;8.548;2023-09-18T05:20:23;99655.31;;;24.87
19568;BMP280;9930;49.240;8.548;2023-09-18T05:22:54;99675.34;;;24.86
19568;BMP280;9930;49.240;8.548;2023-09-18T05:25:27;99672.22;;;24.75
19568;BMP280;9930;49.240;8.548;2023-09-18T05:27:59;99672.25;;;24.74
19568;BMP280;9930;49.240;8.548;2023-09-18T05:33:06;99668.00;;;24.71
19568;BMP280;9930;49.240;8.548;2023-09-18T05:35:44;99673.25;;;24.70
19568;BMP280;9930;49.240;8.548;2023-09-18T05:38:12;99657.81;;;24.64
19568;BMP280;9930;49.240;8.548;2023-09-18T05:40:42;99693.94;;;24.76
19568;BMP280;9930;49.240;8.548;2023-09-18T05:45:50;99676.66;;;24.45
19568;BMP280;9930;49.240;8.548;2023-09-18T05:48:16;99724.38;;;24.75
19568;BMP280;9930;49.240;8.548;2023-09-18T05:50:53;99709.63;;;24.74
19568;BMP280;9930;49.240;8.548;2023-09-18T05:53:26;99668.78;;;24.47
19568;BMP280;9930;49.240;8.548;2023-09-18T05:55:52;99727.94;;;24.73
19568;BMP280;9930;49.240;8.548;2023-09-18T05:58:17;99711.72;;;24.63
19568;BMP280;9930;49.240;8.548;2023-09-18T06:00:50;99723.56;;;24.73
19568;BMP280;9930;49.240;8.548;2023-09-18T06:03:16;99681.66;;;24.51
19568;BMP280;9930;49.240;8.548;2023-09-18T06:05:44;99705.59;;;24.64
19568;BMP280;9930;49.240;8.548;2023-09-18T06:08:10;99724.31;;;24.77
19568;BMP280;9930;49.240;8.548;2023-09-18T06:21:38;99734.81;;;24.75
19568;BMP280;9930;49.240;8.548;2023-09-18T06:28:32;99732.34;;;24.71
19568;BMP280;9930;49.240;8.548;2023-09-18T06:32:17;99764.78;;;24.90
19568;BMP280;9930;49.240;8.548;2023-09-18T06:35:25;99721.25;;;24.64
19568;BMP280;9930;49.240;8.548;2023-09-18T06:44:12;99747.09;;;24.72
19568;BMP280;9930;49.240;8.548;2023-09-18T06:47:20;99779.91;;;24.79
19568;BMP280;9930;49.240;8.548;2023-09-18T06:50:35;99803.91;;;24.90
19568;BMP280;9930;49.240;8.548;2023-09-18T06:53:07;99799.53;;;24.91
19568;BMP280;9930;49.240;8.548;2023-09-18T06:55:54;99780.75;;;24.79
19568;BMP280;9930;49.240;8.548;2023-09-18T06:58:35;99810.69;;;24.96
19568;BMP280;9930;49.240;8.548;2023-09-18T07:01:21;99762.75;;;24.72
19568;BMP280;9930;49.240;8.548;2023-09-18T07:10:41;99814.28;;;24.92
19568;BMP280;9930;49.240;8.548;2023-09-18T07:17:59;99824.56;;;24.98
19568;BMP280;9930;49.240;8.548;2023-09-18T08:19:27;99813.22;;;24.99
19568;BMP280;9930;49.240;8.548;2023-09-18T08:22:06;99829.25;;;25.14
19568;BMP280;9930;49.240;8.548;2023-09-18T08:24:48;99811.91;;;25.13
19568;BMP280;9930;49.240;8.548;2023-09-18T08:30:36;99797.25;;;25.09
19568;BMP280;9930;49.240;8.548;2023-09-18T08:33:33;99793.63;;;25.13
19568;BMP280;9930;49.240;8.548;2023-09-18T08:36:02;99773.09;;;25.03
19568;BMP280;9930;49.240;8.548;2023-09-18T08:38:29;99791.88;;;25.14
19568;BMP280;9930;49.240;8.548;2023-09-18T08:40:57;99800.66;;;25.11
19568;BMP280;9930;49.240;8.548;2023-09-18T08:43:37;99811.50;;;25.26
19568;BMP280;9930;49.240;8.548;2023-09-18T08:46:30;99791.03;;;25.13
19568;BMP280;9930;49.240;8.548;2023-09-18T08:49:09;99785.00;;;25.11
19568;BMP280;9930;49.240;8.548;2023-09-18T08:51:37;99788.28;;;25.18
19568;BMP280;9930;49.240;8.548;2023-09-18T08:54:04;99780.63;;;25.12
19568;BMP280;9930;49.240;8.548;2023-09-18T08:56:34;99772.66;;;25.16
19568;BMP280;9930;49.240;8.548;2023-09-18T08:59:02;99795.91;;;25.24
19568;BMP280;9930;49.240;8.548;2023-09-18T09:01:30;99800.06;;;25.30
19568;BMP280;9930;49.240;8.548;2023-09-18T09:04:12;99790.59;;;25.27
19568;BMP280;9930;49.240;8.548;2023-09-18T09:11:02;99831.19;;;25.36
19568;BMP280;9930;49.240;8.548;2023-09-18T09:13:29;99840.69;;;25.38
19568;BMP280;9930;49.240;8.548;2023-09-18T09:15:58;99824.28;;;25.35
19568;BMP280;9930;49.240;8.548;2023-09-18T09:18:29;99851.63;;;25.49
19568;BMP280;9930;49.240;8.548;2023-09-18T09:21:02;99849.97;;;25.47
19568;BMP280;9930;49.240;8.548;2023-09-18T09:26:42;99863.63;;;25.55
19568;BMP280;9930;49.240;8.548;2023-09-18T09:35:27;99884.53;;;25.55
19568;BMP280;9930;49.240;8.548;2023-09-18T09:40:30;99881.06;;;25.55
19568;BMP280;9930;49.240;8.548;2023-09-18T09:52:26;99876.22;;;25.70
19568;BMP280;9930;49.240;8.548;2023-09-18T09:54:52;99859.06;;;25.62
19568;BMP280;9930;49.240;8.548;2023-09-18T09:59:51;99879.44;;;25.78
19568;BMP280;9930;49.240;8.548;2023-09-18T10:02:24;99855.50;;;25.66
19568;BMP280;9930;49.240;8.548;2023-09-18T10:11:12;99811.41;;;25.55
19568;BMP280;9930;49.240;8.548;2023-09-18T11:28:08;99851.97;;;27.33
19568;BMP280;9930;49.240;8.548;2023-09-18T12:04:41;99864.00;;;28.01
19568;BMP280;9930;49.240;8.548;2023-09-18T13:23:31;99830.66;;;28.83
